WMT8VE LRCL-LIME
Flight info
| Callsign | WMT8VE |
|---|---|
| Flight time | 1h 33m |
| Altitude | 36000 |
| Route | ELROM DCT BUDOP DCT MAVIR DCT VEBAL DCT RIFEN DCT VIC DCT VADIK DCT ADOSA DCT IDREK DCT ELTAR DCT NOBMI L615 OSKOR |
| Aircraft | A320/M-SDE3FGHIRWY/LB1 |
Departure
| Time | 2026-04-18 09:35 |
|---|---|
| Airport | Avram Iancu Cluj International Airport (LRCL) |
Arrival
| Time | 2026-04-18 11:08 |
|---|---|
| Airport | Il Caravaggio International Airport (LIME) |
| Time | Latitude | Longitude | Altitude | Speed | Heading |
|---|---|---|---|---|---|
| 2026-04-18 09:06 | 46.78491 | 23.69454 | 1043 ft | 0 kts | 72° |
| 2026-04-18 09:28 | 46.78486 | 23.69422 | 1043 ft | 4 kts | 85° |
| 2026-04-18 09:28 | 46.78485 | 23.69396 | 1043 ft | 4 kts | 89° |
| 2026-04-18 09:28 | 46.78484 | 23.69366 | 1043 ft | 4 kts | 11° |
| 2026-04-18 09:28 | 46.78481 | 23.69365 | 1043 ft | 0 kts | 353° |
| 2026-04-18 09:30 | 46.78488 | 23.69364 | 1043 ft | 2 kts | 353° |
| 2026-04-18 09:31 | 46.78511 | 23.69356 | 1043 ft | 5 kts | 342° |
| 2026-04-18 09:31 | 46.78551 | 23.69337 | 1043 ft | 7 kts | 341° |
| 2026-04-18 09:31 | 46.78608 | 23.69308 | 1043 ft | 10 kts | 341° |
| 2026-04-18 09:31 | 46.78686 | 23.69270 | 1043 ft | 12 kts | 341° |
| 2026-04-18 09:32 | 46.78763 | 23.69233 | 1043 ft | 12 kts | 341° |
| 2026-04-18 09:32 | 46.78849 | 23.69193 | 1043 ft | 13 kts | 342° |
| 2026-04-18 09:32 | 46.78918 | 23.69211 | 1043 ft | 12 kts | 50° |
| 2026-04-18 09:32 | 46.78955 | 23.69329 | 1043 ft | 14 kts | 72° |
| 2026-04-18 09:33 | 46.78987 | 23.69476 | 1043 ft | 16 kts | 71° |
| 2026-04-18 09:33 | 46.79018 | 23.69578 | 1043 ft | 8 kts | 46° |
| 2026-04-18 09:33 | 46.79021 | 23.69614 | 1043 ft | 1 kts | 202° |
| 2026-04-18 09:33 | 46.79009 | 23.69587 | 1043 ft | 4 kts | 244° |
| 2026-04-18 09:34 | 46.79002 | 23.69541 | 1043 ft | 5 kts | 255° |
| 2026-04-18 09:34 | 46.78999 | 23.69528 | 1043 ft | 0 kts | 251° |
| 2026-04-18 09:35 | 46.78992 | 23.69499 | 1043 ft | 21 kts | 251° |
| 2026-04-18 09:35 | 46.78865 | 23.68928 | 1043 ft | 95 kts | 251° |
| 2026-04-18 09:35 | 46.78601 | 23.67750 | 1051 ft | 146 kts | 253° |
| 2026-04-18 09:35 | 46.78279 | 23.66365 | 1690 ft | 141 kts | 256° |
| 2026-04-18 09:36 | 46.77962 | 23.64985 | 2312 ft | 145 kts | 255° |
| 2026-04-18 09:36 | 46.77614 | 23.63497 | 2614 ft | 167 kts | 255° |
| 2026-04-18 09:36 | 46.77239 | 23.61793 | 2969 ft | 184 kts | 256° |
| 2026-04-18 09:36 | 46.76989 | 23.59885 | 3359 ft | 200 kts | 267° |
| 2026-04-18 09:37 | 46.76923 | 23.57784 | 3781 ft | 216 kts | 271° |
| 2026-04-18 09:37 | 46.76891 | 23.55470 | 4183 ft | 241 kts | 271° |
| 2026-04-18 09:37 | 46.76857 | 23.52911 | 4846 ft | 261 kts | 270° |
| 2026-04-18 09:37 | 46.76809 | 23.50226 | 5736 ft | 268 kts | 270° |
| 2026-04-18 09:38 | 46.76744 | 23.47484 | 6634 ft | 273 kts | 270° |
| 2026-04-18 09:38 | 46.76636 | 23.44694 | 7479 ft | 279 kts | 267° |
| 2026-04-18 09:38 | 46.76429 | 23.41861 | 8353 ft | 283 kts | 265° |
| 2026-04-18 09:38 | 46.76176 | 23.38989 | 9214 ft | 288 kts | 265° |
| 2026-04-18 09:39 | 46.75905 | 23.36080 | 10068 ft | 292 kts | 265° |
| 2026-04-18 09:39 | 46.75627 | 23.33087 | 10553 ft | 308 kts | 265° |
| 2026-04-18 09:39 | 46.75336 | 23.29865 | 10795 ft | 331 kts | 265° |
| 2026-04-18 09:39 | 46.75033 | 23.26419 | 10951 ft | 354 kts | 265° |
| 2026-04-18 09:40 | 46.74716 | 23.22766 | 11297 ft | 370 kts | 265° |
| 2026-04-18 09:40 | 46.74391 | 23.19045 | 11878 ft | 376 kts | 265° |
| 2026-04-18 09:40 | 46.74051 | 23.15197 | 12528 ft | 380 kts | 265° |
| 2026-04-18 09:40 | 46.73711 | 23.11356 | 13191 ft | 384 kts | 266° |
| 2026-04-18 09:41 | 46.73371 | 23.07530 | 13838 ft | 388 kts | 266° |
| 2026-04-18 09:41 | 46.73021 | 23.03609 | 14427 ft | 392 kts | 266° |
| 2026-04-18 09:41 | 46.72667 | 22.99654 | 14992 ft | 395 kts | 266° |
| 2026-04-18 09:41 | 46.72311 | 22.95663 | 15547 ft | 398 kts | 266° |
| 2026-04-18 09:42 | 46.71952 | 22.91647 | 16124 ft | 402 kts | 266° |
| 2026-04-18 09:42 | 46.71587 | 22.87595 | 16687 ft | 405 kts | 266° |
| 2026-04-18 09:42 | 46.71219 | 22.83513 | 17254 ft | 408 kts | 266° |
| 2026-04-18 09:42 | 46.70847 | 22.79389 | 17824 ft | 412 kts | 266° |
| 2026-04-18 09:43 | 46.70472 | 22.75240 | 18400 ft | 415 kts | 266° |
| 2026-04-18 09:43 | 46.70090 | 22.71054 | 18906 ft | 418 kts | 266° |
| 2026-04-18 09:43 | 46.69702 | 22.66840 | 19399 ft | 421 kts | 266° |
| 2026-04-18 09:43 | 46.69311 | 22.62597 | 19899 ft | 424 kts | 266° |
| 2026-04-18 09:44 | 46.68917 | 22.58326 | 20369 ft | 427 kts | 266° |
| 2026-04-18 09:44 | 46.68518 | 22.54012 | 20843 ft | 430 kts | 266° |
| 2026-04-18 09:44 | 46.68115 | 22.49685 | 21281 ft | 433 kts | 266° |
| 2026-04-18 09:44 | 46.67708 | 22.45330 | 21739 ft | 436 kts | 266° |
| 2026-04-18 09:45 | 46.67291 | 22.40943 | 22180 ft | 438 kts | 266° |
| 2026-04-18 09:45 | 46.66866 | 22.36543 | 22606 ft | 441 kts | 266° |
| 2026-04-18 09:45 | 46.66419 | 22.32112 | 23032 ft | 443 kts | 265° |
| 2026-04-18 09:45 | 46.65944 | 22.27665 | 23455 ft | 446 kts | 265° |
| 2026-04-18 09:46 | 46.65448 | 22.23195 | 23842 ft | 448 kts | 264° |
| 2026-04-18 09:46 | 46.64938 | 22.18705 | 24185 ft | 451 kts | 264° |
| 2026-04-18 09:46 | 46.64420 | 22.14198 | 24528 ft | 453 kts | 264° |
| 2026-04-18 09:46 | 46.63900 | 22.09663 | 24881 ft | 455 kts | 264° |
| 2026-04-18 09:47 | 46.63381 | 22.05100 | 25232 ft | 457 kts | 264° |
| 2026-04-18 09:47 | 46.62868 | 22.00577 | 25573 ft | 459 kts | 265° |
| 2026-04-18 09:47 | 46.62341 | 21.95920 | 25911 ft | 462 kts | 264° |
| 2026-04-18 09:47 | 46.61826 | 21.91363 | 26251 ft | 463 kts | 264° |
| 2026-04-18 09:48 | 46.61298 | 21.86743 | 26737 ft | 462 kts | 264° |
| 2026-04-18 09:48 | 46.60765 | 21.82111 | 27222 ft | 461 kts | 265° |
| 2026-04-18 09:48 | 46.60235 | 21.77518 | 27713 ft | 460 kts | 265° |
| 2026-04-18 09:48 | 46.59703 | 21.72921 | 28210 ft | 459 kts | 265° |
| 2026-04-18 09:49 | 46.59176 | 21.68382 | 28694 ft | 458 kts | 265° |
| 2026-04-18 09:49 | 46.58643 | 21.63823 | 29168 ft | 457 kts | 265° |
| 2026-04-18 09:49 | 46.58107 | 21.59265 | 29685 ft | 457 kts | 265° |
| 2026-04-18 09:49 | 46.57573 | 21.54721 | 30164 ft | 456 kts | 265° |
| 2026-04-18 09:50 | 46.57041 | 21.50185 | 30592 ft | 455 kts | 265° |
| 2026-04-18 09:50 | 46.56507 | 21.45665 | 31045 ft | 453 kts | 265° |
| 2026-04-18 09:50 | 46.55973 | 21.41161 | 31498 ft | 452 kts | 265° |
| 2026-04-18 09:50 | 46.55436 | 21.36665 | 31964 ft | 450 kts | 265° |
| 2026-04-18 09:51 | 46.54903 | 21.32195 | 32435 ft | 449 kts | 265° |
| 2026-04-18 09:51 | 46.54369 | 21.27739 | 32904 ft | 447 kts | 265° |
| 2026-04-18 09:51 | 46.53836 | 21.23296 | 33322 ft | 447 kts | 265° |
| 2026-04-18 09:51 | 46.53299 | 21.18818 | 33463 ft | 453 kts | 265° |
| 2026-04-18 09:52 | 46.52753 | 21.14283 | 33592 ft | 459 kts | 265° |
| 2026-04-18 09:52 | 46.52195 | 21.09693 | 33741 ft | 464 kts | 265° |
| 2026-04-18 09:52 | 46.51628 | 21.05047 | 33913 ft | 468 kts | 265° |
| 2026-04-18 09:52 | 46.51056 | 21.00391 | 34227 ft | 470 kts | 264° |
| 2026-04-18 09:53 | 46.50480 | 20.95726 | 34535 ft | 469 kts | 264° |
| 2026-04-18 09:53 | 46.49904 | 20.91063 | 34862 ft | 470 kts | 264° |
| 2026-04-18 09:53 | 46.49327 | 20.86393 | 35177 ft | 470 kts | 264° |
| 2026-04-18 09:53 | 46.48747 | 20.81735 | 35502 ft | 470 kts | 264° |
| 2026-04-18 09:54 | 46.48161 | 20.77060 | 35823 ft | 470 kts | 264° |
| 2026-04-18 09:54 | 46.47573 | 20.72398 | 36079 ft | 471 kts | 264° |
| 2026-04-18 09:54 | 46.46399 | 20.63047 | 36151 ft | 471 kts | 264° |
| 2026-04-18 09:55 | 46.45222 | 20.53705 | 36152 ft | 471 kts | 264° |
| 2026-04-18 09:55 | 46.44043 | 20.44426 | 36164 ft | 471 kts | 264° |
| 2026-04-18 09:56 | 46.42846 | 20.35089 | 36158 ft | 471 kts | 264° |
| 2026-04-18 09:56 | 46.41635 | 20.25755 | 36156 ft | 472 kts | 264° |
| 2026-04-18 09:57 | 46.40417 | 20.16406 | 36157 ft | 472 kts | 264° |
| 2026-04-18 09:57 | 46.39198 | 20.07058 | 36154 ft | 472 kts | 264° |
| 2026-04-18 09:58 | 46.37972 | 19.97722 | 36156 ft | 472 kts | 264° |
| 2026-04-18 09:58 | 46.36735 | 19.88368 | 36155 ft | 473 kts | 264° |
| 2026-04-18 09:59 | 46.35482 | 19.79011 | 36154 ft | 473 kts | 264° |
| 2026-04-18 10:00 | 46.33596 | 19.64973 | 36154 ft | 474 kts | 264° |
| 2026-04-18 10:00 | 46.32323 | 19.55615 | 36152 ft | 474 kts | 264° |
| 2026-04-18 10:01 | 46.31038 | 19.46249 | 36154 ft | 475 kts | 264° |
| 2026-04-18 10:01 | 46.29749 | 19.36886 | 36155 ft | 475 kts | 265° |
| 2026-04-18 10:02 | 46.28458 | 19.27518 | 36154 ft | 475 kts | 265° |
| 2026-04-18 10:02 | 46.27379 | 19.19727 | 36154 ft | 476 kts | 265° |
| 2026-04-18 10:03 | 46.25845 | 19.08765 | 36152 ft | 476 kts | 265° |
| 2026-04-18 10:03 | 46.24744 | 19.00958 | 36151 ft | 477 kts | 264° |
| 2026-04-18 10:03 | 46.23861 | 18.94738 | 36276 ft | 477 kts | 265° |
| 2026-04-18 10:04 | 46.23408 | 18.91565 | 36359 ft | 478 kts | 265° |
| 2026-04-18 10:04 | 46.22736 | 18.86870 | 36499 ft | 478 kts | 265° |
| 2026-04-18 10:04 | 46.22061 | 18.82180 | 36666 ft | 478 kts | 264° |
| 2026-04-18 10:04 | 46.21382 | 18.77483 | 36861 ft | 477 kts | 264° |
| 2026-04-18 10:05 | 46.20704 | 18.72797 | 37043 ft | 476 kts | 264° |
| 2026-04-18 10:05 | 46.20032 | 18.68125 | 36894 ft | 474 kts | 264° |
| 2026-04-18 10:05 | 46.19369 | 18.63513 | 36342 ft | 473 kts | 265° |
| 2026-04-18 10:05 | 46.18703 | 18.58871 | 36145 ft | 473 kts | 265° |
| 2026-04-18 10:06 | 46.18035 | 18.54211 | 36192 ft | 476 kts | 265° |
| 2026-04-18 10:06 | 46.16674 | 18.44844 | 36186 ft | 477 kts | 265° |
| 2026-04-18 10:07 | 46.15292 | 18.35487 | 36188 ft | 477 kts | 265° |
| 2026-04-18 10:07 | 46.13897 | 18.26138 | 36188 ft | 477 kts | 264° |
| 2026-04-18 10:08 | 46.12507 | 18.16809 | 36188 ft | 476 kts | 264° |
| 2026-04-18 10:08 | 46.11114 | 18.07480 | 36184 ft | 476 kts | 264° |
| 2026-04-18 10:09 | 46.09711 | 17.98155 | 36191 ft | 476 kts | 264° |
| 2026-04-18 10:09 | 46.08302 | 17.88837 | 36191 ft | 476 kts | 264° |
| 2026-04-18 10:10 | 46.06887 | 17.79532 | 36193 ft | 475 kts | 264° |
| 2026-04-18 10:10 | 46.05462 | 17.70249 | 36195 ft | 475 kts | 264° |
| 2026-04-18 10:11 | 46.04025 | 17.60980 | 36197 ft | 474 kts | 264° |
| 2026-04-18 10:11 | 46.02595 | 17.51724 | 36192 ft | 473 kts | 264° |
| 2026-04-18 10:12 | 46.01154 | 17.42476 | 36195 ft | 473 kts | 264° |
| 2026-04-18 10:12 | 45.99706 | 17.33252 | 36189 ft | 473 kts | 264° |
| 2026-04-18 10:13 | 45.99000 | 17.24006 | 36191 ft | 462 kts | 275° |
| 2026-04-18 10:13 | 45.98802 | 17.14776 | 36191 ft | 462 kts | 275° |
| 2026-04-18 10:14 | 45.98601 | 17.05553 | 36193 ft | 461 kts | 275° |
| 2026-04-18 10:14 | 45.98382 | 16.96341 | 36192 ft | 461 kts | 274° |
| 2026-04-18 10:15 | 45.98147 | 16.87147 | 36198 ft | 460 kts | 274° |
| 2026-04-18 10:15 | 45.97905 | 16.77951 | 36198 ft | 460 kts | 274° |
| 2026-04-18 10:16 | 45.97659 | 16.68776 | 36199 ft | 459 kts | 274° |
| 2026-04-18 10:16 | 45.97408 | 16.59599 | 36197 ft | 459 kts | 274° |
| 2026-04-18 10:17 | 45.97155 | 16.50510 | 36199 ft | 458 kts | 274° |
| 2026-04-18 10:17 | 45.96890 | 16.41359 | 36199 ft | 458 kts | 273° |
| 2026-04-18 10:18 | 45.96624 | 16.32226 | 36198 ft | 457 kts | 273° |
| 2026-04-18 10:18 | 45.96343 | 16.23091 | 36193 ft | 457 kts | 273° |
| 2026-04-18 10:19 | 45.96053 | 16.13981 | 36198 ft | 456 kts | 273° |
| 2026-04-18 10:19 | 45.95768 | 16.04869 | 36201 ft | 456 kts | 273° |
| 2026-04-18 10:20 | 45.95470 | 15.95762 | 36186 ft | 456 kts | 273° |
| 2026-04-18 10:20 | 45.95160 | 15.86666 | 36187 ft | 455 kts | 272° |
| 2026-04-18 10:21 | 45.94842 | 15.77575 | 36185 ft | 455 kts | 272° |
| 2026-04-18 10:21 | 45.94523 | 15.68503 | 36182 ft | 455 kts | 272° |
| 2026-04-18 10:22 | 45.94202 | 15.59430 | 36182 ft | 455 kts | 272° |
| 2026-04-18 10:22 | 45.93868 | 15.50363 | 36185 ft | 454 kts | 272° |
| 2026-04-18 10:23 | 45.93523 | 15.41293 | 36188 ft | 454 kts | 272° |
| 2026-04-18 10:23 | 45.93171 | 15.32235 | 36189 ft | 454 kts | 271° |
| 2026-04-18 10:24 | 45.92812 | 15.23179 | 36186 ft | 454 kts | 271° |
| 2026-04-18 10:24 | 45.92451 | 15.14123 | 36188 ft | 454 kts | 271° |
| 2026-04-18 10:25 | 45.92077 | 15.05075 | 36186 ft | 454 kts | 271° |
| 2026-04-18 10:25 | 45.91699 | 14.96026 | 36187 ft | 454 kts | 271° |
| 2026-04-18 10:26 | 45.91316 | 14.87038 | 36186 ft | 454 kts | 271° |
| 2026-04-18 10:26 | 45.90927 | 14.77966 | 36185 ft | 454 kts | 271° |
| 2026-04-18 10:27 | 45.90528 | 14.68901 | 36186 ft | 453 kts | 270° |
| 2026-04-18 10:27 | 45.90125 | 14.59921 | 36187 ft | 453 kts | 270° |
| 2026-04-18 10:28 | 45.89716 | 14.50891 | 36183 ft | 453 kts | 270° |
| 2026-04-18 10:28 | 45.89293 | 14.41868 | 36183 ft | 453 kts | 270° |
| 2026-04-18 10:29 | 45.88869 | 14.32845 | 36181 ft | 453 kts | 270° |
| 2026-04-18 10:29 | 45.88437 | 14.23820 | 36174 ft | 453 kts | 270° |
| 2026-04-18 10:30 | 45.87991 | 14.14804 | 36172 ft | 453 kts | 270° |
| 2026-04-18 10:30 | 45.87544 | 14.05802 | 36172 ft | 452 kts | 269° |
| 2026-04-18 10:31 | 45.87093 | 13.96792 | 36167 ft | 452 kts | 269° |
| 2026-04-18 10:31 | 45.86631 | 13.87796 | 36160 ft | 452 kts | 269° |
| 2026-04-18 10:32 | 45.86167 | 13.78808 | 36154 ft | 452 kts | 269° |
| 2026-04-18 10:32 | 45.85693 | 13.69811 | 36148 ft | 452 kts | 269° |
| 2026-04-18 10:33 | 45.85204 | 13.60819 | 36145 ft | 452 kts | 269° |
| 2026-04-18 10:33 | 45.84522 | 13.51850 | 36144 ft | 453 kts | 265° |
| 2026-04-18 10:34 | 45.83539 | 13.42905 | 36145 ft | 454 kts | 264° |
| 2026-04-18 10:34 | 45.82502 | 13.33977 | 36142 ft | 454 kts | 264° |
| 2026-04-18 10:35 | 45.81543 | 13.25101 | 36138 ft | 453 kts | 265° |
| 2026-04-18 10:35 | 45.80607 | 13.16116 | 36157 ft | 453 kts | 264° |
| 2026-04-18 10:36 | 45.79661 | 13.07188 | 36163 ft | 453 kts | 264° |
| 2026-04-18 10:36 | 45.78698 | 12.98323 | 36165 ft | 453 kts | 264° |
| 2026-04-18 10:37 | 45.77730 | 12.89406 | 36163 ft | 453 kts | 264° |
| 2026-04-18 10:37 | 45.76756 | 12.80495 | 36167 ft | 453 kts | 264° |
| 2026-04-18 10:38 | 45.75783 | 12.71663 | 36169 ft | 453 kts | 264° |
| 2026-04-18 10:38 | 45.74785 | 12.62755 | 36165 ft | 453 kts | 264° |
| 2026-04-18 10:39 | 45.73790 | 12.53857 | 36164 ft | 452 kts | 264° |
| 2026-04-18 10:39 | 45.72781 | 12.44965 | 36169 ft | 452 kts | 264° |
| 2026-04-18 10:40 | 45.71771 | 12.36089 | 36167 ft | 452 kts | 264° |
| 2026-04-18 10:40 | 45.70762 | 12.27212 | 36167 ft | 452 kts | 264° |
| 2026-04-18 10:41 | 45.69735 | 12.18358 | 36157 ft | 452 kts | 263° |
| 2026-04-18 10:41 | 45.69216 | 12.13921 | 36025 ft | 451 kts | 263° |
| 2026-04-18 10:41 | 45.68699 | 12.09502 | 35754 ft | 452 kts | 264° |
| 2026-04-18 10:41 | 45.68179 | 12.05058 | 35253 ft | 451 kts | 264° |
| 2026-04-18 10:42 | 45.67664 | 12.00635 | 34765 ft | 452 kts | 264° |
| 2026-04-18 10:42 | 45.67152 | 11.96262 | 34288 ft | 451 kts | 264° |
| 2026-04-18 10:42 | 45.66626 | 11.91800 | 33735 ft | 447 kts | 264° |
| 2026-04-18 10:42 | 45.66111 | 11.87483 | 33217 ft | 445 kts | 264° |
| 2026-04-18 10:43 | 45.65591 | 11.83130 | 32678 ft | 445 kts | 263° |
| 2026-04-18 10:43 | 45.65068 | 11.78768 | 32149 ft | 446 kts | 263° |
| 2026-04-18 10:43 | 45.64542 | 11.74389 | 31632 ft | 447 kts | 263° |
| 2026-04-18 10:43 | 45.64018 | 11.70008 | 31127 ft | 448 kts | 264° |
| 2026-04-18 10:44 | 45.63758 | 11.65588 | 30635 ft | 445 kts | 272° |
| 2026-04-18 10:44 | 45.63808 | 11.61166 | 30134 ft | 446 kts | 274° |
| 2026-04-18 10:44 | 45.63871 | 11.56720 | 29561 ft | 448 kts | 274° |
| 2026-04-18 10:44 | 45.63933 | 11.52264 | 29005 ft | 450 kts | 274° |
| 2026-04-18 10:45 | 45.63993 | 11.47796 | 28461 ft | 451 kts | 273° |
| 2026-04-18 10:45 | 45.64049 | 11.43280 | 27920 ft | 453 kts | 273° |
| 2026-04-18 10:45 | 45.64101 | 11.38803 | 27399 ft | 455 kts | 273° |
| 2026-04-18 10:45 | 45.64152 | 11.34275 | 26884 ft | 456 kts | 273° |
| 2026-04-18 10:46 | 45.64187 | 11.31200 | 26538 ft | 458 kts | 273° |
| 2026-04-18 10:46 | 45.64252 | 11.25172 | 25877 ft | 460 kts | 273° |
| 2026-04-18 10:46 | 45.64284 | 11.22105 | 25550 ft | 462 kts | 273° |
| 2026-04-18 10:46 | 45.64330 | 11.17509 | 25065 ft | 463 kts | 273° |
| 2026-04-18 10:47 | 45.64372 | 11.12899 | 24593 ft | 465 kts | 273° |
| 2026-04-18 10:47 | 45.64409 | 11.08267 | 24124 ft | 467 kts | 272° |
| 2026-04-18 10:47 | 45.64443 | 11.03632 | 23560 ft | 465 kts | 272° |
| 2026-04-18 10:47 | 45.64477 | 10.99028 | 22878 ft | 462 kts | 272° |
| 2026-04-18 10:48 | 45.64512 | 10.94449 | 22213 ft | 459 kts | 272° |
| 2026-04-18 10:48 | 45.64547 | 10.89913 | 21564 ft | 455 kts | 272° |
| 2026-04-18 10:48 | 45.64582 | 10.85412 | 20919 ft | 450 kts | 272° |
| 2026-04-18 10:48 | 45.64619 | 10.80986 | 20297 ft | 440 kts | 272° |
| 2026-04-18 10:49 | 45.64653 | 10.76659 | 19690 ft | 432 kts | 272° |
| 2026-04-18 10:49 | 45.64684 | 10.72402 | 19094 ft | 424 kts | 272° |
| 2026-04-18 10:49 | 45.64711 | 10.68231 | 18506 ft | 414 kts | 271° |
| 2026-04-18 10:49 | 45.64737 | 10.64207 | 17949 ft | 399 kts | 271° |
| 2026-04-18 10:50 | 45.64761 | 10.60275 | 17423 ft | 392 kts | 272° |
| 2026-04-18 10:50 | 45.64781 | 10.56435 | 16905 ft | 380 kts | 271° |
| 2026-04-18 10:50 | 45.64797 | 10.52723 | 16393 ft | 368 kts | 271° |
| 2026-04-18 10:50 | 45.64811 | 10.49110 | 15886 ft | 358 kts | 271° |
| 2026-04-18 10:51 | 45.64823 | 10.45592 | 15393 ft | 351 kts | 272° |
| 2026-04-18 10:51 | 45.64834 | 10.42126 | 14911 ft | 347 kts | 272° |
| 2026-04-18 10:51 | 45.64844 | 10.38686 | 14479 ft | 346 kts | 272° |
| 2026-04-18 10:51 | 45.64855 | 10.35257 | 14112 ft | 343 kts | 272° |
| 2026-04-18 10:52 | 45.64864 | 10.31848 | 13713 ft | 342 kts | 271° |
| 2026-04-18 10:52 | 45.64875 | 10.28466 | 13304 ft | 340 kts | 271° |
| 2026-04-18 10:52 | 45.64606 | 10.25126 | 12919 ft | 339 kts | 255° |
| 2026-04-18 10:52 | 45.63844 | 10.21942 | 12532 ft | 338 kts | 252° |
| 2026-04-18 10:53 | 45.62973 | 10.18884 | 12159 ft | 337 kts | 242° |
| 2026-04-18 10:53 | 45.61511 | 10.16297 | 11783 ft | 336 kts | 221° |
| 2026-04-18 10:53 | 45.59666 | 10.14244 | 11482 ft | 336 kts | 218° |
| 2026-04-18 10:53 | 45.57807 | 10.12234 | 11187 ft | 335 kts | 218° |
| 2026-04-18 10:54 | 45.55954 | 10.10241 | 10885 ft | 333 kts | 218° |
| 2026-04-18 10:54 | 45.54106 | 10.08257 | 10597 ft | 331 kts | 218° |
| 2026-04-18 10:54 | 45.52269 | 10.06285 | 10300 ft | 330 kts | 218° |
| 2026-04-18 10:54 | 45.50444 | 10.04319 | 10021 ft | 328 kts | 218° |
| 2026-04-18 10:55 | 45.48630 | 10.02363 | 9739 ft | 326 kts | 218° |
| 2026-04-18 10:55 | 45.46842 | 10.00438 | 9522 ft | 318 kts | 218° |
| 2026-04-18 10:55 | 45.45089 | 9.98552 | 9304 ft | 310 kts | 218° |
| 2026-04-18 10:55 | 45.43377 | 9.96744 | 9096 ft | 304 kts | 213° |
| 2026-04-18 10:56 | 45.41456 | 9.95574 | 8885 ft | 300 kts | 193° |
| 2026-04-18 10:56 | 45.39394 | 9.95475 | 8678 ft | 295 kts | 171° |
| 2026-04-18 10:56 | 45.37484 | 9.96432 | 8469 ft | 291 kts | 149° |
| 2026-04-18 10:56 | 45.35842 | 9.98075 | 8261 ft | 288 kts | 143° |
| 2026-04-18 10:57 | 45.34228 | 9.99760 | 8057 ft | 287 kts | 143° |
| 2026-04-18 10:57 | 45.32745 | 10.01627 | 7864 ft | 284 kts | 127° |
| 2026-04-18 10:57 | 45.31872 | 10.04110 | 7672 ft | 281 kts | 103° |
| 2026-04-18 10:57 | 45.31746 | 10.06812 | 7462 ft | 278 kts | 80° |
| 2026-04-18 10:58 | 45.32371 | 10.09374 | 7273 ft | 275 kts | 57° |
| 2026-04-18 10:58 | 45.33550 | 10.11509 | 7079 ft | 275 kts | 49° |
| 2026-04-18 10:58 | 45.34799 | 10.13599 | 6883 ft | 272 kts | 49° |
| 2026-04-18 10:58 | 45.36000 | 10.15610 | 6687 ft | 268 kts | 47° |
| 2026-04-18 10:59 | 45.37432 | 10.17244 | 6493 ft | 263 kts | 25° |
| 2026-04-18 10:59 | 45.39175 | 10.17924 | 6279 ft | 259 kts | 2° |
| 2026-04-18 10:59 | 45.40900 | 10.17565 | 6075 ft | 245 kts | 338° |
| 2026-04-18 10:59 | 45.42349 | 10.16466 | 5973 ft | 226 kts | 330° |
| 2026-04-18 11:00 | 45.43667 | 10.15368 | 5979 ft | 215 kts | 329° |
| 2026-04-18 11:00 | 45.44957 | 10.14291 | 5982 ft | 215 kts | 330° |
| 2026-04-18 11:00 | 45.46208 | 10.13245 | 5982 ft | 209 kts | 329° |
| 2026-04-18 11:00 | 45.47462 | 10.12193 | 5980 ft | 208 kts | 329° |
| 2026-04-18 11:01 | 45.48714 | 10.11142 | 5858 ft | 208 kts | 329° |
| 2026-04-18 11:01 | 45.49957 | 10.10098 | 5669 ft | 208 kts | 329° |
| 2026-04-18 11:01 | 45.51202 | 10.09056 | 5501 ft | 208 kts | 329° |
| 2026-04-18 11:02 | 45.53695 | 10.06964 | 5162 ft | 208 kts | 329° |
| 2026-04-18 11:02 | 45.54940 | 10.05918 | 4981 ft | 208 kts | 329° |
| 2026-04-18 11:02 | 45.56186 | 10.04871 | 4817 ft | 207 kts | 329° |
| 2026-04-18 11:02 | 45.57413 | 10.03839 | 4667 ft | 202 kts | 329° |
| 2026-04-18 11:03 | 45.58617 | 10.02826 | 4514 ft | 200 kts | 329° |
| 2026-04-18 11:03 | 45.59808 | 10.01824 | 4399 ft | 197 kts | 329° |
| 2026-04-18 11:03 | 45.60846 | 10.00570 | 4249 ft | 196 kts | 308° |
| 2026-04-18 11:03 | 45.61506 | 9.98880 | 4101 ft | 195 kts | 287° |
| 2026-04-18 11:04 | 45.61861 | 9.97016 | 3953 ft | 195 kts | 283° |
| 2026-04-18 11:04 | 45.62208 | 9.95147 | 3861 ft | 195 kts | 284° |
| 2026-04-18 11:04 | 45.62558 | 9.93276 | 3680 ft | 195 kts | 284° |
| 2026-04-18 11:04 | 45.62908 | 9.91415 | 3451 ft | 194 kts | 283° |
| 2026-04-18 11:05 | 45.63257 | 9.89561 | 3199 ft | 193 kts | 283° |
| 2026-04-18 11:05 | 45.63602 | 9.87721 | 2942 ft | 189 kts | 283° |
| 2026-04-18 11:05 | 45.63933 | 9.85964 | 2702 ft | 175 kts | 284° |
| 2026-04-18 11:05 | 45.64235 | 9.84352 | 2493 ft | 159 kts | 283° |
| 2026-04-18 11:06 | 45.64510 | 9.82885 | 2276 ft | 148 kts | 283° |
| 2026-04-18 11:06 | 45.64773 | 9.81478 | 2075 ft | 145 kts | 283° |
| 2026-04-18 11:06 | 45.65032 | 9.80095 | 1889 ft | 144 kts | 283° |
| 2026-04-18 11:06 | 45.65290 | 9.78716 | 1700 ft | 143 kts | 283° |
| 2026-04-18 11:07 | 45.65552 | 9.77340 | 1516 ft | 142 kts | 283° |
| 2026-04-18 11:07 | 45.65803 | 9.75983 | 1371 ft | 145 kts | 283° |
| 2026-04-18 11:07 | 45.66060 | 9.74600 | 1162 ft | 142 kts | 283° |
| 2026-04-18 11:07 | 45.66322 | 9.73201 | 951 ft | 148 kts | 284° |
| 2026-04-18 11:08 | 45.66581 | 9.71805 | 783 ft | 145 kts | 284° |
| 2026-04-18 11:08 | 45.66804 | 9.70590 | 778 ft | 103 kts | 285° |
| 2026-04-18 11:08 | 45.66926 | 9.69933 | 786 ft | 51 kts | 285° |
| 2026-04-18 11:08 | 45.67008 | 9.69460 | 787 ft | 47 kts | 283° |
| 2026-04-18 11:09 | 45.67071 | 9.69151 | 789 ft | 22 kts | 279° |
| 2026-04-18 11:09 | 45.67055 | 9.68989 | 791 ft | 13 kts | 265° |
| 2026-04-18 11:09 | 45.67010 | 9.68983 | 791 ft | 8 kts | 150° |
| 2026-04-18 11:09 | 45.66954 | 9.68982 | 791 ft | 8 kts | 192° |
| 2026-04-18 11:10 | 45.66932 | 9.68987 | 791 ft | 4 kts | 156° |
| 2026-04-18 11:10 | 45.66912 | 9.69033 | 791 ft | 7 kts | 107° |
| 2026-04-18 11:10 | 45.66903 | 9.69125 | 790 ft | 11 kts | 98° |
| 2026-04-18 11:10 | 45.66898 | 9.69170 | 790 ft | 0 kts | 99° |
| 2026-04-18 11:11 | 45.66898 | 9.69176 | 790 ft | 2 kts | 100° |
| 2026-04-18 11:11 | 45.66890 | 9.69211 | 789 ft | 5 kts | 112° |
| 2026-04-18 11:11 | 45.66875 | 9.69278 | 789 ft | 9 kts | 105° |
| 2026-04-18 11:11 | 45.66861 | 9.69375 | 788 ft | 8 kts | 103° |
| 2026-04-18 11:12 | 45.66845 | 9.69460 | 787 ft | 10 kts | 105° |
| 2026-04-18 11:12 | 45.66825 | 9.69562 | 787 ft | 12 kts | 104° |
| 2026-04-18 11:12 | 45.66803 | 9.69690 | 786 ft | 15 kts | 104° |
| 2026-04-18 11:12 | 45.66783 | 9.69794 | 785 ft | 3 kts | 105° |
| 2026-04-18 11:13 | 45.66780 | 9.69813 | 785 ft | 2 kts | 105° |
| 2026-04-18 11:13 | 45.66765 | 9.69832 | 785 ft | 4 kts | 159° |
| 2026-04-18 11:13 | 45.66738 | 9.69814 | 785 ft | 4 kts | 206° |
| 2026-04-18 11:13 | 45.66711 | 9.69808 | 785 ft | 3 kts | 195° |
| 2026-04-18 11:14 | 45.66695 | 9.69802 | 785 ft | 3 kts | 195° |
| 2026-04-18 11:14 | 45.66678 | 9.69795 | 785 ft | 0 kts | 195° |
| 2026-04-18 11:14 | 45.66675 | 9.69794 | 785 ft | 0 kts | 195° |
| 2026-04-18 11:14 | 45.66673 | 9.69793 | 785 ft | 0 kts | 195° |